sensor_id;sensor_type;location;lat;lon;timestamp;temperature;humidity
1644;DHT22;46825;51.99869940;8.49421771;2023-11-22T00:00:19;4.30;99.90
1644;DHT22;46825;51.99869940;8.49421771;2023-11-22T00:01:21;4.20;99.90
1644;DHT22;46825;51.99869940;8.49421771;2023-11-22T00:02:22;4.30;99.90
1644;DHT22;46825;51.99869940;8.49421771;2023-11-22T00:03:24;4.20;99.90
1644;DHT22;46825;51.99869940;8.49421771;2023-11-22T00:04:25;4.20;99.90
1644;DHT22;46825;51.99869940;8.49421771;2023-11-22T00:05:26;4.10;99.90
1644;DHT22;46825;51.99869940;8.49421771;2023-11-22T00:06:28;4.10;99.90
1644;DHT22;46825;51.99869940;8.49421771;2023-11-22T00:08:32;4.10;99.90
1644;DHT22;46825;51.99869940;8.49421771;2023-11-22T00:09:33;4.20;99.90
1644;DHT22;46825;51.99869940;8.49421771;2023-11-22T00:10:34;4.10;99.90
1644;DHT22;46825;51.99869940;8.49421771;2023-11-22T00:11:35;4.10;99.90
1644;DHT22;46825;51.99869940;8.49421771;2023-11-22T00:12:35;4.10;99.90
1644;DHT22;46825;51.99869940;8.49421771;2023-11-22T00:13:39;4.10;99.90
1644;DHT22;46825;51.99869940;8.49421771;2023-11-22T00:14:40;4.00;99.90
1644;DHT22;46825;51.99869940;8.49421771;2023-11-22T00:15:40;4.00;99.90
1644;DHT22;46825;51.99869940;8.49421771;2023-11-22T00:16:41;4.00;99.90
1644;DHT22;46825;51.99869940;8.49421771;2023-11-22T00:17:43;4.20;99.90
1644;DHT22;46825;51.99869940;8.49421771;2023-11-22T00:18:44;4.00;99.90
1644;DHT22;46825;51.99869940;8.49421771;2023-11-22T00:19:44;4.00;99.90
1644;DHT22;46825;51.99869940;8.49421771;2023-11-22T00:20:45;4.00;99.90
1644;DHT22;46825;51.99869940;8.49421771;2023-11-22T00:21:49;3.90;99.90
1644;DHT22;46825;51.99869940;8.49421771;2023-11-22T00:22:50;3.90;99.90
1644;DHT22;46825;51.99869940;8.49421771;2023-11-22T00:23:50;3.90;99.90
1644;DHT22;46825;51.99869940;8.49421771;2023-11-22T00:24:51;3.90;99.90
1644;DHT22;46825;51.99869940;8.49421771;2023-11-22T00:25:52;3.80;99.90
1644;DHT22;46825;51.99869940;8.49421771;2023-11-22T00:26:53;3.90;99.90
1644;DHT22;46825;51.99869940;8.49421771;2023-11-22T00:27:53;4.00;99.90
1644;DHT22;46825;51.99869940;8.49421771;2023-11-22T00:28:55;5.10;99.90
1644;DHT22;46825;51.99869940;8.49421771;2023-11-22T00:29:56;3.90;99.90
1644;DHT22;46825;51.99869940;8.49421771;2023-11-22T00:30:56;3.80;99.90
1644;DHT22;46825;51.99869940;8.49421771;2023-11-22T00:31:58;3.80;99.90
1644;DHT22;46825;51.99869940;8.49421771;2023-11-22T00:32:59;3.80;99.90
1644;DHT22;46825;51.99869940;8.49421771;2023-11-22T00:33:59;3.80;99.90
1644;DHT22;46825;51.99869940;8.49421771;2023-11-22T00:35:00;3.80;99.90
1644;DHT22;46825;51.99869940;8.49421771;2023-11-22T00:36:01;3.80;99.90
1644;DHT22;46825;51.99869940;8.49421771;2023-11-22T00:37:04;3.80;99.90
1644;DHT22;46825;51.99869940;8.49421771;2023-11-22T00:38:06;3.70;99.90
1644;DHT22;46825;51.99869940;8.49421771;2023-11-22T00:39:06;3.70;99.90
1644;DHT22;46825;51.99869940;8.49421771;2023-11-22T00:40:11;3.70;99.90
1644;DHT22;46825;51.99869940;8.49421771;2023-11-22T00:41:15;3.70;99.90
1644;DHT22;46825;51.99869940;8.49421771;2023-11-22T00:42:16;3.60;99.90
1644;DHT22;46825;51.99869940;8.49421771;2023-11-22T00:43:20;3.70;99.90
1644;DHT22;46825;51.99869940;8.49421771;2023-11-22T00:44:21;3.60;99.90
1644;DHT22;46825;51.99869940;8.49421771;2023-11-22T00:45:21;3.50;99.90
1644;DHT22;46825;51.99869940;8.49421771;2023-11-22T00:46:22;3.60;99.90
1644;DHT22;46825;51.99869940;8.49421771;2023-11-22T00:47:23;3.50;99.90
1644;DHT22;46825;51.99869940;8.49421771;2023-11-22T00:48:23;3.50;99.90
1644;DHT22;46825;51.99869940;8.49421771;2023-11-22T00:49:24;3.50;99.90
1644;DHT22;46825;51.99869940;8.49421771;2023-11-22T00:50:24;3.50;99.90
1644;DHT22;46825;51.99869940;8.49421771;2023-11-22T00:51:25;3.40;99.90
1644;DHT22;46825;51.99869940;8.49421771;2023-11-22T00:52:26;3.40;99.90
1644;DHT22;46825;51.99869940;8.49421771;2023-11-22T00:53:27;3.40;99.90
1644;DHT22;46825;51.99869940;8.49421771;2023-11-22T00:54:27;3.40;99.90
1644;DHT22;46825;51.99869940;8.49421771;2023-11-22T00:55:28;3.50;99.90
1644;DHT22;46825;51.99869940;8.49421771;2023-11-22T00:56:28;3.50;99.90
1644;DHT22;46825;51.99869940;8.49421771;2023-11-22T00:57:29;3.50;99.90
1644;DHT22;46825;51.99869940;8.49421771;2023-11-22T00:58:31;3.50;99.90
1644;DHT22;46825;51.99869940;8.49421771;2023-11-22T00:59:31;3.50;99.90
1644;DHT22;46825;51.99869940;8.49421771;2023-11-22T01:00:32;3.50;99.90
1644;DHT22;46825;51.99869940;8.49421771;2023-11-22T01:01:32;3.50;99.90
1644;DHT22;46825;51.99869940;8.49421771;2023-11-22T01:02:33;3.60;99.90
1644;DHT22;46825;51.99869940;8.49421771;2023-11-22T01:03:34;3.60;99.90
1644;DHT22;46825;51.99869940;8.49421771;2023-11-22T01:04:38;3.60;99.90
1644;DHT22;46825;51.99869940;8.49421771;2023-11-22T01:05:38;3.60;99.90
1644;DHT22;46825;51.99869940;8.49421771;2023-11-22T01:06:39;3.70;99.90
1644;DHT22;46825;51.99869940;8.49421771;2023-11-22T01:07:41;3.70;99.90
1644;DHT22;46825;51.99869940;8.49421771;2023-11-22T01:08:41;3.90;99.90
1644;DHT22;46825;51.99869940;8.49421771;2023-11-22T01:09:42;3.80;99.90
1644;DHT22;46825;51.99869940;8.49421771;2023-11-22T01:10:43;3.80;99.90
1644;DHT22;46825;51.99869940;8.49421771;2023-11-22T01:11:44;3.90;99.90
1644;DHT22;46825;51.99869940;8.49421771;2023-11-22T01:12:44;3.90;99.90
1644;DHT22;46825;51.99869940;8.49421771;2023-11-22T01:13:45;4.00;99.90
1644;DHT22;46825;51.99869940;8.49421771;2023-11-22T01:14:46;4.10;99.90
1644;DHT22;46825;51.99869940;8.49421771;2023-11-22T01:15:47;4.00;99.90
1644;DHT22;46825;51.99869940;8.49421771;2023-11-22T01:16:47;4.00;99.90
1644;DHT22;46825;51.99869940;8.49421771;2023-11-22T01:17:48;3.90;99.90
1644;DHT22;46825;51.99869940;8.49421771;2023-11-22T01:18:49;3.90;99.90
1644;DHT22;46825;51.99869940;8.49421771;2023-11-22T01:19:49;3.90;99.90
1644;DHT22;46825;51.99869940;8.49421771;2023-11-22T01:20:51;3.90;99.90
1644;DHT22;46825;51.99869940;8.49421771;2023-11-22T01:21:51;3.90;99.90
1644;DHT22;46825;51.99869940;8.49421771;2023-11-22T01:22:52;3.80;99.90
1644;DHT22;46825;51.99869940;8.49421771;2023-11-22T01:23:52;5.50;99.90
1644;DHT22;46825;51.99869940;8.49421771;2023-11-22T01:24:53;3.70;99.90
1644;DHT22;46825;51.99869940;8.49421771;2023-11-22T01:25:54;3.70;99.90
1644;DHT22;46825;51.99869940;8.49421771;2023-11-22T01:26:54;4.20;99.90
1644;DHT22;46825;51.99869940;8.49421771;2023-11-22T01:27:55;3.60;99.90
1644;DHT22;46825;51.99869940;8.49421771;2023-11-22T01:28:56;3.60;99.90
1644;DHT22;46825;51.99869940;8.49421771;2023-11-22T01:29:56;3.50;99.90
1644;DHT22;46825;51.99869940;8.49421771;2023-11-22T01:30:57;3.50;99.90
1644;DHT22;46825;51.99869940;8.49421771;2023-11-22T01:31:58;3.50;99.90
1644;DHT22;46825;51.99869940;8.49421771;2023-11-22T01:32:59;3.50;99.90
1644;DHT22;46825;51.99869940;8.49421771;2023-11-22T01:33:59;3.40;99.90
1644;DHT22;46825;51.99869940;8.49421771;2023-11-22T01:35:01;3.40;99.90
1644;DHT22;46825;51.99869940;8.49421771;2023-11-22T01:36:01;3.40;99.90
1644;DHT22;46825;51.99869940;8.49421771;2023-11-22T01:37:03;3.50;99.90
1644;DHT22;46825;51.99869940;8.49421771;2023-11-22T01:38:03;3.30;99.90
1644;DHT22;46825;51.99869940;8.49421771;2023-11-22T01:39:04;4.60;99.90
1644;DHT22;46825;51.99869940;8.49421771;2023-11-22T01:40:05;3.30;99.90
1644;DHT22;46825;51.99869940;8.49421771;2023-11-22T01:41:08;3.40;99.90
1644;DHT22;46825;51.99869940;8.49421771;2023-11-22T01:42:09;3.40;99.90
1644;DHT22;46825;51.99869940;8.49421771;2023-11-22T01:43:19;3.50;99.90
1644;DHT22;46825;51.99869940;8.49421771;2023-11-22T01:44:20;3.40;99.90
1644;DHT22;46825;51.99869940;8.49421771;2023-11-22T01:45:21;3.50;99.90
1644;DHT22;46825;51.99869940;8.49421771;2023-11-22T01:46:23;3.50;99.90
1644;DHT22;46825;51.99869940;8.49421771;2023-11-22T01:47:27;3.40;99.90
1644;DHT22;46825;51.99869940;8.49421771;2023-11-22T01:48:27;3.40;99.90
1644;DHT22;46825;51.99869940;8.49421771;2023-11-22T01:49:29;3.50;99.90
1644;DHT22;46825;51.99869940;8.49421771;2023-11-22T01:50:30;3.50;99.90
1644;DHT22;46825;51.99869940;8.49421771;2023-11-22T01:51:30;3.40;99.90
1644;DHT22;46825;51.99869940;8.49421771;2023-11-22T01:52:31;3.50;99.90
1644;DHT22;46825;51.99869940;8.49421771;2023-11-22T01:53:32;3.40;99.90
1644;DHT22;46825;51.99869940;8.49421771;2023-11-22T01:54:33;3.30;99.90
1644;DHT22;46825;51.99869940;8.49421771;2023-11-22T01:55:34;3.30;99.90
1644;DHT22;46825;51.99869940;8.49421771;2023-11-22T01:56:36;3.40;99.90
1644;DHT22;46825;51.99869940;8.49421771;2023-11-22T01:57:37;3.30;99.90
1644;DHT22;46825;51.99869940;8.49421771;2023-11-22T01:58:38;3.30;99.90
1644;DHT22;46825;51.99869940;8.49421771;2023-11-22T01:59:39;3.20;99.90
1644;DHT22;46825;51.99869940;8.49421771;2023-11-22T02:00:49;3.40;99.90
1644;DHT22;46825;51.99869940;8.49421771;2023-11-22T02:01:50;3.30;99.90
1644;DHT22;46825;51.99869940;8.49421771;2023-11-22T02:02:51;3.30;99.90
1644;DHT22;46825;51.99869940;8.49421771;2023-11-22T02:03:51;3.20;99.90
1644;DHT22;46825;51.99869940;8.49421771;2023-11-22T02:04:53;3.10;99.90
1644;DHT22;46825;51.99869940;8.49421771;2023-11-22T02:05:54;3.00;99.90
1644;DHT22;46825;51.99869940;8.49421771;2023-11-22T02:06:55;3.00;99.90
1644;DHT22;46825;51.99869940;8.49421771;2023-11-22T02:07:57;3.00;99.90
1644;DHT22;46825;51.99869940;8.49421771;2023-11-22T02:08:57;3.00;99.90
1644;DHT22;46825;51.99869940;8.49421771;2023-11-22T02:09:58;3.00;99.90
1644;DHT22;46825;51.99869940;8.49421771;2023-11-22T02:11:00;3.10;99.90
1644;DHT22;46825;51.99869940;8.49421771;2023-11-22T02:12:00;3.10;99.90
1644;DHT22;46825;51.99869940;8.49421771;2023-11-22T02:13:01;3.10;99.90
1644;DHT22;46825;51.99869940;8.49421771;2023-11-22T02:14:05;3.10;99.90
1644;DHT22;46825;51.99869940;8.49421771;2023-11-22T02:15:07;3.00;99.90
1644;DHT22;46825;51.99869940;8.49421771;2023-11-22T02:16:08;3.00;99.90
1644;DHT22;46825;51.99869940;8.49421771;2023-11-22T02:17:09;2.90;99.90
1644;DHT22;46825;51.99869940;8.49421771;2023-11-22T02:18:10;2.90;99.90
1644;DHT22;46825;51.99869940;8.49421771;2023-11-22T02:19:17;2.80;99.90
1644;DHT22;46825;51.99869940;8.49421771;2023-11-22T02:20:17;2.70;99.90
1644;DHT22;46825;51.99869940;8.49421771;2023-11-22T02:21:18;2.70;99.90
1644;DHT22;46825;51.99869940;8.49421771;2023-11-22T02:22:19;2.70;99.90
1644;DHT22;46825;51.99869940;8.49421771;2023-11-22T02:23:19;2.60;99.90
1644;DHT22;46825;51.99869940;8.49421771;2023-11-22T02:24:20;2.50;99.90
1644;DHT22;46825;51.99869940;8.49421771;2023-11-22T02:25:20;2.40;99.90
1644;DHT22;46825;51.99869940;8.49421771;2023-11-22T02:26:21;2.40;99.90
1644;DHT22;46825;51.99869940;8.49421771;2023-11-22T02:27:21;2.30;99.90
1644;DHT22;46825;51.99869940;8.49421771;2023-11-22T02:28:22;2.30;99.90
1644;DHT22;46825;51.99869940;8.49421771;2023-11-22T02:29:23;2.30;99.90
1644;DHT22;46825;51.99869940;8.49421771;2023-11-22T02:30:23;2.30;99.90
1644;DHT22;46825;51.99869940;8.49421771;2023-11-22T02:31:26;2.30;99.90
1644;DHT22;46825;51.99869940;8.49421771;2023-11-22T02:32:28;2.30;99.90
1644;DHT22;46825;51.99869940;8.49421771;2023-11-22T02:33:29;2.30;99.90
1644;DHT22;46825;51.99869940;8.49421771;2023-11-22T02:34:30;2.30;99.90
1644;DHT22;46825;51.99869940;8.49421771;2023-11-22T02:35:31;2.20;99.90
1644;DHT22;46825;51.99869940;8.49421771;2023-11-22T02:36:34;2.30;99.90
1644;DHT22;46825;51.99869940;8.49421771;2023-11-22T02:37:35;2.30;99.90
1644;DHT22;46825;51.99869940;8.49421771;2023-11-22T02:38:36;2.50;99.90
1644;DHT22;46825;51.99869940;8.49421771;2023-11-22T02:40:00;2.30;99.90
1644;DHT22;46825;51.99869940;8.49421771;2023-11-22T02:41:04;2.40;99.90
1644;DHT22;46825;51.99869940;8.49421771;2023-11-22T02:42:05;2.40;99.90
1644;DHT22;46825;51.99869940;8.49421771;2023-11-22T02:43:05;2.40;99.90
1644;DHT22;46825;51.99869940;8.49421771;2023-11-22T02:44:07;2.40;99.90
1644;DHT22;46825;51.99869940;8.49421771;2023-11-22T02:45:08;2.40;99.90
1644;DHT22;46825;51.99869940;8.49421771;2023-11-22T02:46:09;2.30;99.90
1644;DHT22;46825;51.99869940;8.49421771;2023-11-22T02:47:09;2.40;99.90
1644;DHT22;46825;51.99869940;8.49421771;2023-11-22T02:48:10;2.30;99.90
1644;DHT22;46825;51.99869940;8.49421771;2023-11-22T02:49:11;2.30;99.90
1644;DHT22;46825;51.99869940;8.49421771;2023-11-22T02:50:13;3.30;99.90
1644;DHT22;46825;51.99869940;8.49421771;2023-11-22T02:51:14;2.30;99.90
1644;DHT22;46825;51.99869940;8.49421771;2023-11-22T02:52:14;2.30;99.90
1644;DHT22;46825;51.99869940;8.49421771;2023-11-22T02:53:16;2.30;99.90
1644;DHT22;46825;51.99869940;8.49421771;2023-11-22T02:54:17;2.30;99.90
1644;DHT22;46825;51.99869940;8.49421771;2023-11-22T02:55:17;2.30;99.90
1644;DHT22;46825;51.99869940;8.49421771;2023-11-22T02:56:18;1.60;99.90
1644;DHT22;46825;51.99869940;8.49421771;2023-11-22T02:57:19;2.30;99.90
1644;DHT22;46825;51.99869940;8.49421771;2023-11-22T02:58:19;2.20;99.90
1644;DHT22;46825;51.99869940;8.49421771;2023-11-22T02:59:20;2.20;99.90
1644;DHT22;46825;51.99869940;8.49421771;2023-11-22T03:00:20;2.20;99.90
1644;DHT22;46825;51.99869940;8.49421771;2023-11-22T03:01:21;2.10;99.90
1644;DHT22;46825;51.99869940;8.49421771;2023-11-22T03:02:21;2.10;99.90
1644;DHT22;46825;51.99869940;8.49421771;2023-11-22T03:03:22;2.10;99.90
1644;DHT22;46825;51.99869940;8.49421771;2023-11-22T03:04:24;2.10;99.90
1644;DHT22;46825;51.99869940;8.49421771;2023-11-22T03:05:24;2.10;99.90
1644;DHT22;46825;51.99869940;8.49421771;2023-11-22T03:06:25;2.10;99.90
1644;DHT22;46825;51.99869940;8.49421771;2023-11-22T03:07:26;2.00;99.90
1644;DHT22;46825;51.99869940;8.49421771;2023-11-22T03:08:27;2.00;99.90
1644;DHT22;46825;51.99869940;8.49421771;2023-11-22T03:09:27;2.10;99.90
1644;DHT22;46825;51.99869940;8.49421771;2023-11-22T03:10:28;2.10;99.90
1644;DHT22;46825;51.99869940;8.49421771;2023-11-22T03:11:30;2.10;99.90
1644;DHT22;46825;51.99869940;8.49421771;2023-11-22T03:12:32;2.20;99.90
1644;DHT22;46825;51.99869940;8.49421771;2023-11-22T03:13:32;2.20;99.90
1644;DHT22;46825;51.99869940;8.49421771;2023-11-22T03:14:33;2.20;99.90
1644;DHT22;46825;51.99869940;8.49421771;2023-11-22T03:15:34;2.20;99.90
1644;DHT22;46825;51.99869940;8.49421771;2023-11-22T03:16:39;2.20;99.90
1644;DHT22;46825;51.99869940;8.49421771;2023-11-22T03:17:39;2.20;99.90
1644;DHT22;46825;51.99869940;8.49421771;2023-11-22T03:18:40;2.20;99.90
1644;DHT22;46825;51.99869940;8.49421771;2023-11-22T03:19:41;2.20;99.90
1644;DHT22;46825;51.99869940;8.49421771;2023-11-22T03:20:41;2.20;99.90
1644;DHT22;46825;51.99869940;8.49421771;2023-11-22T03:22:44;2.20;99.90
1644;DHT22;46825;51.99869940;8.49421771;2023-11-22T03:23:45;2.10;99.90
1644;DHT22;46825;51.99869940;8.49421771;2023-11-22T03:24:45;2.10;99.90
1644;DHT22;46825;51.99869940;8.49421771;2023-11-22T03:25:46;2.20;99.90
1644;DHT22;46825;51.99869940;8.49421771;2023-11-22T03:26:46;2.00;99.90
1644;DHT22;46825;51.99869940;8.49421771;2023-11-22T03:27:47;1.90;99.90
1644;DHT22;46825;51.99869940;8.49421771;2023-11-22T03:28:48;1.90;99.90
1644;DHT22;46825;51.99869940;8.49421771;2023-11-22T03:29:48;2.00;99.90
1644;DHT22;46825;51.99869940;8.49421771;2023-11-22T03:30:49;2.00;99.90
1644;DHT22;46825;51.99869940;8.49421771;2023-11-22T03:31:50;2.00;99.90
1644;DHT22;46825;51.99869940;8.49421771;2023-11-22T03:32:51;2.00;99.90
1644;DHT22;46825;51.99869940;8.49421771;2023-11-22T03:33:52;2.00;99.90
1644;DHT22;46825;51.99869940;8.49421771;2023-11-22T03:34:54;1.80;99.90
1644;DHT22;46825;51.99869940;8.49421771;2023-11-22T03:35:55;1.90;99.90
1644;DHT22;46825;51.99869940;8.49421771;2023-11-22T03:36:55;1.90;99.90
1644;DHT22;46825;51.99869940;8.49421771;2023-11-22T03:37:56;1.90;99.90
1644;DHT22;46825;51.99869940;8.49421771;2023-11-22T03:38:57;1.90;99.90
1644;DHT22;46825;51.99869940;8.49421771;2023-11-22T03:39:58;1.90;99.90
1644;DHT22;46825;51.99869940;8.49421771;2023-11-22T03:40:58;1.90;99.90
1644;DHT22;46825;51.99869940;8.49421771;2023-11-22T03:41:59;1.90;99.90
1644;DHT22;46825;51.99869940;8.49421771;2023-11-22T03:43:00;1.80;99.90
1644;DHT22;46825;51.99869940;8.49421771;2023-11-22T03:44:00;1.80;99.90
1644;DHT22;46825;51.99869940;8.49421771;2023-11-22T03:45:01;0.20;99.90
1644;DHT22;46825;51.99869940;8.49421771;2023-11-22T03:46:02;1.80;99.90
1644;DHT22;46825;51.99869940;8.49421771;2023-11-22T03:47:02;1.80;99.90
1644;DHT22;46825;51.99869940;8.49421771;2023-11-22T03:48:03;1.80;99.90
1644;DHT22;46825;51.99869940;8.49421771;2023-11-22T03:49:05;1.80;99.90
1644;DHT22;46825;51.99869940;8.49421771;2023-11-22T03:50:07;1.80;99.90
1644;DHT22;46825;51.99869940;8.49421771;2023-11-22T03:51:08;1.80;99.90
1644;DHT22;46825;51.99869940;8.49421771;2023-11-22T03:52:11;1.90;99.90
1644;DHT22;46825;51.99869940;8.49421771;2023-11-22T03:53:11;1.80;99.90
1644;DHT22;46825;51.99869940;8.49421771;2023-11-22T03:54:12;1.80;99.90
1644;DHT22;46825;51.99869940;8.49421771;2023-11-22T03:55:13;1.80;99.90
1644;DHT22;46825;51.99869940;8.49421771;2023-11-22T03:56:13;1.80;99.90
1644;DHT22;46825;51.99869940;8.49421771;2023-11-22T03:57:14;1.80;99.90
1644;DHT22;46825;51.99869940;8.49421771;2023-11-22T03:58:14;1.90;99.90
1644;DHT22;46825;51.99869940;8.49421771;2023-11-22T03:59:15;1.80;99.90
1644;DHT22;46825;51.99869940;8.49421771;2023-11-22T04:00:16;1.90;99.90
1644;DHT22;46825;51.99869940;8.49421771;2023-11-22T04:01:17;1.80;99.90
1644;DHT22;46825;51.99869940;8.49421771;2023-11-22T04:02:19;1.80;99.90
1644;DHT22;46825;51.99869940;8.49421771;2023-11-22T04:03:19;1.90;99.90
1644;DHT22;46825;51.99869940;8.49421771;2023-11-22T04:04:21;1.90;99.90
1644;DHT22;46825;51.99869940;8.49421771;2023-11-22T04:05:21;1.80;99.90
1644;DHT22;46825;51.99869940;8.49421771;2023-11-22T04:06:22;1.80;99.90
1644;DHT22;46825;51.99869940;8.49421771;2023-11-22T04:07:23;1.80;99.90
1644;DHT22;46825;51.99869940;8.49421771;2023-11-22T04:08:24;1.90;99.90
1644;DHT22;46825;51.99869940;8.49421771;2023-11-22T04:09:25;1.90;99.90
1644;DHT22;46825;51.99869940;8.49421771;2023-11-22T04:10:26;1.90;99.90
1644;DHT22;46825;51.99869940;8.49421771;2023-11-22T04:11:27;1.90;99.90
1644;DHT22;46825;51.99869940;8.49421771;2023-11-22T04:12:29;1.90;99.90
1644;DHT22;46825;51.99869940;8.49421771;2023-11-22T04:13:30;1.80;99.90
1644;DHT22;46825;51.99869940;8.49421771;2023-11-22T04:14:31;1.80;99.90
1644;DHT22;46825;51.99869940;8.49421771;2023-11-22T04:15:32;1.80;99.90
1644;DHT22;46825;51.99869940;8.49421771;2023-11-22T04:16:32;1.80;99.90
1644;DHT22;46825;51.99869940;8.49421771;2023-11-22T04:17:33;1.70;99.90
1644;DHT22;46825;51.99869940;8.49421771;2023-11-22T04:18:35;1.70;99.90
1644;DHT22;46825;51.99869940;8.49421771;2023-11-22T04:19:36;1.70;99.90
1644;DHT22;46825;51.99869940;8.49421771;2023-11-22T04:20:36;1.70;99.90
1644;DHT22;46825;51.99869940;8.49421771;2023-11-22T04:21:37;1.70;99.90
1644;DHT22;46825;51.99869940;8.49421771;2023-11-22T04:22:39;1.70;99.90
1644;DHT22;46825;51.99869940;8.49421771;2023-11-22T04:23:40;3.30;99.90
1644;DHT22;46825;51.99869940;8.49421771;2023-11-22T04:24:41;1.70;99.90
1644;DHT22;46825;51.99869940;8.49421771;2023-11-22T04:25:41;1.80;99.90
1644;DHT22;46825;51.99869940;8.49421771;2023-11-22T04:26:42;1.70;99.90
1644;DHT22;46825;51.99869940;8.49421771;2023-11-22T04:27:43;2.80;99.90
1644;DHT22;46825;51.99869940;8.49421771;2023-11-22T04:28:44;1.70;99.90
1644;DHT22;46825;51.99869940;8.49421771;2023-11-22T04:29:44;1.60;99.90
1644;DHT22;46825;51.99869940;8.49421771;2023-11-22T04:30:46;1.60;99.90
1644;DHT22;46825;51.99869940;8.49421771;2023-11-22T04:31:46;1.60;99.90
1644;DHT22;46825;51.99869940;8.49421771;2023-11-22T04:32:47;1.60;99.90
1644;DHT22;46825;51.99869940;8.49421771;2023-11-22T04:33:48;1.60;99.90
1644;DHT22;46825;51.99869940;8.49421771;2023-11-22T04:34:48;1.50;99.90
1644;DHT22;46825;51.99869940;8.49421771;2023-11-22T04:35:49;1.60;99.90
1644;DHT22;46825;51.99869940;8.49421771;2023-11-22T04:36:50;1.60;99.90
1644;DHT22;46825;51.99869940;8.49421771;2023-11-22T04:37:50;1.60;99.90
1644;DHT22;46825;51.99869940;8.49421771;2023-11-22T04:38:51;1.80;99.90
1644;DHT22;46825;51.99869940;8.49421771;2023-11-22T04:39:51;1.60;99.90
1644;DHT22;46825;51.99869940;8.49421771;2023-11-22T04:40:53;1.60;99.90
1644;DHT22;46825;51.99869940;8.49421771;2023-11-22T04:41:53;1.80;99.90
1644;DHT22;46825;51.99869940;8.49421771;2023-11-22T04:42:54;1.60;99.90
1644;DHT22;46825;51.99869940;8.49421771;2023-11-22T04:43:54;1.60;99.90
1644;DHT22;46825;51.99869940;8.49421771;2023-11-22T04:44:55;1.60;99.90
1644;DHT22;46825;51.99869940;8.49421771;2023-11-22T04:45:55;1.60;99.90
1644;DHT22;46825;51.99869940;8.49421771;2023-11-22T04:46:56;1.60;99.90
1644;DHT22;46825;51.99869940;8.49421771;2023-11-22T04:47:56;1.60;99.90
1644;DHT22;46825;51.99869940;8.49421771;2023-11-22T04:48:58;1.80;99.90
1644;DHT22;46825;51.99869940;8.49421771;2023-11-22T04:49:58;1.60;99.90
1644;DHT22;46825;51.99869940;8.49421771;2023-11-22T04:50:59;4.00;99.90
1644;DHT22;46825;51.99869940;8.49421771;2023-11-22T04:51:59;1.70;99.90
1644;DHT22;46825;51.99869940;8.49421771;2023-11-22T04:53:01;1.60;99.90
1644;DHT22;46825;51.99869940;8.49421771;2023-11-22T04:54:02;1.60;99.90
1644;DHT22;46825;51.99869940;8.49421771;2023-11-22T04:55:03;1.60;99.90
1644;DHT22;46825;51.99869940;8.49421771;2023-11-22T04:56:05;1.60;99.90
1644;DHT22;46825;51.99869940;8.49421771;2023-11-22T04:57:06;1.60;99.90
1644;DHT22;46825;51.99869940;8.49421771;2023-11-22T04:58:06;1.60;99.90
1644;DHT22;46825;51.99869940;8.49421771;2023-11-22T04:59:07;3.70;99.90
1644;DHT22;46825;51.99869940;8.49421771;2023-11-22T05:00:08;1.60;99.90
1644;DHT22;46825;51.99869940;8.49421771;2023-11-22T05:01:09;1.60;99.90
1644;DHT22;46825;51.99869940;8.49421771;2023-11-22T05:02:10;1.60;99.90
1644;DHT22;46825;51.99869940;8.49421771;2023-11-22T05:03:11;1.60;99.90
1644;DHT22;46825;51.99869940;8.49421771;2023-11-22T05:04:13;1.60;99.90
1644;DHT22;46825;51.99869940;8.49421771;2023-11-22T05:05:14;1.70;99.90
1644;DHT22;46825;51.99869940;8.49421771;2023-11-22T05:06:15;1.60;99.90
1644;DHT22;46825;51.99869940;8.49421771;2023-11-22T05:07:16;1.50;99.90
1644;DHT22;46825;51.99869940;8.49421771;2023-11-22T05:08:19;1.50;99.90
1644;DHT22;46825;51.99869940;8.49421771;2023-11-22T05:09:19;1.50;99.90
1644;DHT22;46825;51.99869940;8.49421771;2023-11-22T05:10:20;1.50;99.90
1644;DHT22;46825;51.99869940;8.49421771;2023-11-22T05:11:21;1.50;99.90
1644;DHT22;46825;51.99869940;8.49421771;2023-11-22T05:12:22;1.50;99.90
1644;DHT22;46825;51.99869940;8.49421771;2023-11-22T05:13:23;1.40;99.90
1644;DHT22;46825;51.99869940;8.49421771;2023-11-22T05:14:23;1.40;99.90
1644;DHT22;46825;51.99869940;8.49421771;2023-11-22T05:15:25;1.40;99.90
1644;DHT22;46825;51.99869940;8.49421771;2023-11-22T05:16:25;1.40;99.90
1644;DHT22;46825;51.99869940;8.49421771;2023-11-22T05:17:26;1.40;99.90
1644;DHT22;46825;51.99869940;8.49421771;2023-11-22T05:18:26;1.50;99.90
1644;DHT22;46825;51.99869940;8.49421771;2023-11-22T05:19:27;1.40;99.90
1644;DHT22;46825;51.99869940;8.49421771;2023-11-22T05:20:27;1.50;99.90
1644;DHT22;46825;51.99869940;8.49421771;2023-11-22T05:21:28;1.40;99.90
1644;DHT22;46825;51.99869940;8.49421771;2023-11-22T05:22:29;1.40;99.90
1644;DHT22;46825;51.99869940;8.49421771;2023-11-22T05:23:30;1.50;99.90
1644;DHT22;46825;51.99869940;8.49421771;2023-11-22T05:24:32;1.50;99.90
1644;DHT22;46825;51.99869940;8.49421771;2023-11-22T05:25:35;1.50;99.90
1644;DHT22;46825;51.99869940;8.49421771;2023-11-22T05:26:36;1.60;99.90
1644;DHT22;46825;51.99869940;8.49421771;2023-11-22T05:27:36;1.50;99.90
1644;DHT22;46825;51.99869940;8.49421771;2023-11-22T05:28:37;1.50;99.90
1644;DHT22;46825;51.99869940;8.49421771;2023-11-22T05:29:38;-1.10;99.90
1644;DHT22;46825;51.99869940;8.49421771;2023-11-22T05:30:38;1.50;99.90
1644;DHT22;46825;51.99869940;8.49421771;2023-11-22T05:31:39;1.80;99.90
1644;DHT22;46825;51.99869940;8.49421771;2023-11-22T05:32:39;1.50;99.90
1644;DHT22;46825;51.99869940;8.49421771;2023-11-22T05:33:40;1.50;99.90
1644;DHT22;46825;51.99869940;8.49421771;2023-11-22T05:34:41;1.50;99.90
1644;DHT22;46825;51.99869940;8.49421771;2023-11-22T05:35:41;1.50;99.90
1644;DHT22;46825;51.99869940;8.49421771;2023-11-22T05:36:42;1.50;99.90
1644;DHT22;46825;51.99869940;8.49421771;2023-11-22T05:37:42;3.80;99.90
1644;DHT22;46825;51.99869940;8.49421771;2023-11-22T05:38:43;1.40;99.90
1644;DHT22;46825;51.99869940;8.49421771;2023-11-22T05:39:43;1.40;99.90
1644;DHT22;46825;51.99869940;8.49421771;2023-11-22T05:40:45;1.30;99.90
1644;DHT22;46825;51.99869940;8.49421771;2023-11-22T05:41:45;1.30;99.90
1644;DHT22;46825;51.99869940;8.49421771;2023-11-22T05:42:46;1.30;99.90
1644;DHT22;46825;51.99869940;8.49421771;2023-11-22T05:43:46;1.20;99.90
1644;DHT22;46825;51.99869940;8.49421771;2023-11-22T05:44:47;1.20;99.90